createdAt,value
2023-01-12T00:01:43.897Z,101356.26
2023-01-12T00:04:17.122Z,101351.17
2023-01-12T00:06:49.719Z,101352.95
2023-01-12T00:09:21.944Z,101356.52
2023-01-12T00:11:54.138Z,101352.92
2023-01-12T00:14:26.374Z,101355.46
2023-01-12T00:16:58.889Z,101351.11
2023-01-12T00:19:31.166Z,101345.14
2023-01-12T00:22:09.023Z,101342.63
2023-01-12T00:24:44.119Z,101343.77
2023-01-12T00:27:19.213Z,101352.42
2023-01-12T00:29:51.682Z,101361.44
2023-01-12T00:32:24.025Z,101368.73
2023-01-12T00:34:56.332Z,101380.52
2023-01-12T00:37:29.348Z,101379.35
2023-01-12T00:40:03.060Z,101379.17
2023-01-12T00:42:52.894Z,101380.07
2023-01-12T00:45:25.492Z,101383.46
2023-01-12T00:47:57.721Z,101389.67
2023-01-12T00:50:29.999Z,101384.20
2023-01-12T00:53:02.319Z,101383.36
2023-01-12T00:55:34.515Z,101374.59
2023-01-12T00:58:06.817Z,101369.40
2023-01-12T01:00:39.096Z,101360.63
2023-01-12T01:03:11.324Z,101364.09
2023-01-12T01:05:43.565Z,101356.42
2023-01-12T01:08:15.783Z,101346.48
2023-01-12T01:10:48.030Z,101343.48
2023-01-12T01:13:20.192Z,101345.88
2023-01-12T01:15:52.573Z,101341.14
2023-01-12T01:18:24.823Z,101360.54
2023-01-12T01:20:57.347Z,101377.48
2023-01-12T01:23:31.430Z,101384.42
2023-01-12T01:26:07.641Z,101390.27
2023-01-12T01:28:40.210Z,101394.19
2023-01-12T01:31:14.320Z,101400.77
2023-01-12T01:33:47.129Z,101401.27
2023-01-12T01:36:20.319Z,101394.34
2023-01-12T01:38:53.071Z,101384.15
2023-01-12T01:41:27.040Z,101377.33
2023-01-12T01:44:02.034Z,101368.92
2023-01-12T01:46:44.719Z,101372.77
2023-01-12T01:49:29.915Z,101371.79
2023-01-12T01:52:07.457Z,101370.47
2023-01-12T01:54:43.203Z,101370.06
2023-01-12T01:57:15.139Z,101367.23
2023-01-12T01:59:54.012Z,101366.63
2023-01-12T02:02:28.032Z,101369.59
2023-01-12T02:05:01.783Z,101369.58
2023-01-12T02:07:34.910Z,101370.59
2023-01-12T02:10:08.025Z,101366.67
2023-01-12T02:12:57.901Z,101370.08
2023-01-12T02:15:54.186Z,101373.48
2023-01-12T02:18:33.731Z,101373.03
2023-01-12T02:21:18.334Z,101376.77
2023-01-12T02:24:25.745Z,101378.13
2023-01-12T02:27:36.333Z,101374.11
2023-01-12T02:30:46.483Z,101368.91
2023-01-12T02:33:43.605Z,101362.73
2023-01-12T02:36:26.572Z,101362.54
2023-01-12T02:39:04.571Z,101361.92
2023-01-12T02:42:00.286Z,101364.29
2023-01-12T02:44:37.917Z,101355.55
2023-01-12T02:47:17.454Z,101353.13
2023-01-12T02:49:54.921Z,101346.98
2023-01-12T02:52:30.566Z,101345.42
2023-01-12T02:55:06.150Z,101343.14
2023-01-12T02:57:40.368Z,101346.10
2023-01-12T03:00:18.094Z,101346.46
2023-01-12T03:02:50.798Z,101342.31
2023-01-12T03:05:23.118Z,101338.11
2023-01-12T03:08:00.288Z,101328.19
2023-01-12T03:10:50.680Z,101326.68
2023-01-12T03:13:24.500Z,101329.00
2023-01-12T03:15:59.227Z,101330.81
2023-01-12T03:18:39.969Z,101329.25
2023-01-12T03:21:17.985Z,101325.06
2023-01-12T03:23:56.086Z,101322.48
2023-01-12T03:26:31.255Z,101324.20
2023-01-12T03:29:09.601Z,101333.29
2023-01-12T03:31:42.590Z,101325.77
2023-01-12T03:34:15.284Z,101317.64
2023-01-12T03:36:55.745Z,101311.89
2023-01-12T03:39:36.113Z,101312.86
2023-01-12T03:42:16.162Z,101312.96
2023-01-12T03:44:57.029Z,101315.75
2023-01-12T03:47:33.342Z,101314.55
2023-01-12T03:50:09.191Z,101318.41
2023-01-12T03:52:44.856Z,101322.10
2023-01-12T03:55:20.758Z,101325.78
2023-01-12T03:57:51.840Z,101327.28
2023-01-12T04:00:27.213Z,101322.66
2023-01-12T04:03:10.022Z,101321.29
2023-01-12T04:05:43.700Z,101320.52
2023-01-12T04:08:18.489Z,101325.73
2023-01-12T04:10:50.685Z,101323.61
2023-01-12T04:13:22.955Z,101320.95
2023-01-12T04:15:55.144Z,101320.52
2023-01-12T04:18:27.276Z,101320.72
2023-01-12T04:20:59.601Z,101319.17
2023-01-12T04:23:31.777Z,101318.95
2023-01-12T04:26:03.965Z,101314.34
2023-01-12T04:28:36.104Z,101304.94
2023-01-12T04:31:10.371Z,101306.31
2023-01-12T04:33:42.602Z,101312.17
2023-01-12T04:36:17.040Z,101317.21
2023-01-12T04:38:49.275Z,101319.91
2023-01-12T04:41:21.494Z,101320.71
2023-01-12T04:43:53.679Z,101321.46
2023-01-12T04:46:25.877Z,101318.04
2023-01-12T04:48:58.641Z,101316.23
2023-01-12T04:51:30.964Z,101318.45
2023-01-12T04:54:03.148Z,101321.72
2023-01-12T04:56:35.327Z,101327.60
2023-01-12T04:59:09.889Z,101328.66
2023-01-12T05:01:42.406Z,101326.60
2023-01-12T05:04:15.571Z,101322.61
2023-01-12T05:06:47.810Z,101326.70
2023-01-12T05:09:37.601Z,101328.58
2023-01-12T05:12:10.147Z,101327.89
2023-01-12T05:14:42.318Z,101333.13
2023-01-12T05:17:14.502Z,101334.05
2023-01-12T05:19:48.433Z,101337.09
2023-01-12T05:22:20.619Z,101334.92
2023-01-12T05:24:52.819Z,101342.98
2023-01-12T05:27:25.053Z,101340.96
2023-01-12T05:29:59.877Z,101342.44
2023-01-12T05:32:32.231Z,101342.34
2023-01-12T05:35:04.522Z,101346.64
2023-01-12T05:37:36.953Z,101353.16
2023-01-12T05:40:12.209Z,101355.98
2023-01-12T05:43:16.361Z,101358.52
2023-01-12T05:45:48.604Z,101355.96
2023-01-12T05:48:20.870Z,101356.55
2023-01-12T05:50:53.144Z,101363.69
2023-01-12T05:53:25.357Z,101364.61
2023-01-12T05:55:58.039Z,101366.62
2023-01-12T05:58:30.376Z,101367.67
2023-01-12T06:01:02.686Z,101364.57
2023-01-12T06:03:35.410Z,101368.26
2023-01-12T06:06:08.280Z,101363.09
2023-01-12T06:08:40.442Z,101368.61
2023-01-12T06:11:32.726Z,101377.04
2023-01-12T06:14:06.361Z,101379.42
2023-01-12T06:16:40.892Z,101376.98
2023-01-12T06:19:14.076Z,101366.74
2023-01-12T06:21:46.277Z,101358.81
2023-01-12T06:24:18.474Z,101359.19
2023-01-12T06:26:50.673Z,101362.86
2023-01-12T06:29:22.851Z,101356.60
2023-01-12T06:31:55.189Z,101357.23
2023-01-12T06:34:27.357Z,101369.39
2023-01-12T06:36:59.528Z,101376.35
2023-01-12T06:39:32.530Z,101378.45
2023-01-12T06:42:22.922Z,101372.14
2023-01-12T06:44:55.114Z,101375.75
2023-01-12T06:47:28.402Z,101387.55
2023-01-12T06:50:01.814Z,101383.17
2023-01-12T06:52:34.094Z,101379.41
2023-01-12T06:55:07.138Z,101385.77
2023-01-12T06:57:39.362Z,101390.23
2023-01-12T07:00:15.280Z,101388.08
2023-01-12T07:02:45.797Z,101383.72
2023-01-12T07:05:18.368Z,101388.52
2023-01-12T07:07:50.697Z,101390.91
2023-01-12T07:10:23.091Z,101388.60
2023-01-12T07:12:55.296Z,101383.92
2023-01-12T07:15:27.499Z,101384.65
2023-01-12T07:18:00.615Z,101383.39
2023-01-12T07:20:33.457Z,101387.60
2023-01-12T07:23:05.846Z,101389.44
2023-01-12T07:25:38.297Z,101397.45
2023-01-12T07:28:11.530Z,101412.39
2023-01-12T07:30:43.848Z,101417.20
2023-01-12T07:33:18.770Z,101415.32
2023-01-12T07:35:51.144Z,101410.94
2023-01-12T07:38:23.526Z,101421.44
2023-01-12T07:40:55.954Z,101421.77
2023-01-12T07:43:28.472Z,101425.67
2023-01-12T07:46:01.163Z,101429.27
2023-01-12T07:48:35.205Z,101424.59
2023-01-12T07:51:07.760Z,101426.35
2023-01-12T07:53:40.052Z,101430.58
2023-01-12T07:56:16.124Z,101426.89
2023-01-12T07:58:48.149Z,101421.01
2023-01-12T08:01:20.520Z,101425.35
2023-01-12T08:03:52.950Z,101430.83
2023-01-12T08:06:25.159Z,101435.76
2023-01-12T08:08:57.570Z,101437.27
2023-01-12T08:11:29.902Z,101436.79
2023-01-12T08:14:03.137Z,101432.13
2023-01-12T08:16:41.022Z,101431.16
2023-01-12T08:19:20.028Z,101438.46
2023-01-12T08:21:59.033Z,101443.21
2023-01-12T08:24:35.785Z,101443.25
2023-01-12T08:27:10.322Z,101443.17
2023-01-12T08:29:46.602Z,101442.68
2023-01-12T08:32:19.210Z,101439.71
2023-01-12T08:34:55.090Z,101437.56
2023-01-12T08:37:29.238Z,101440.36
2023-01-12T08:40:01.709Z,101447.64
2023-01-12T08:42:33.945Z,101447.55
2023-01-12T08:45:08.370Z,101455.63
2023-01-12T08:47:44.420Z,101457.30
2023-01-12T08:50:17.132Z,101455.90
2023-01-12T08:52:49.733Z,101458.33
2023-01-12T08:55:21.935Z,101458.77
2023-01-12T08:57:54.121Z,101453.48
2023-01-12T09:00:26.717Z,101449.34
2023-01-12T09:02:59.067Z,101449.20
2023-01-12T09:05:31.372Z,101441.71
2023-01-12T09:08:03.546Z,101440.36
2023-01-12T09:10:36.282Z,101437.92
2023-01-12T09:13:08.751Z,101440.08
2023-01-12T09:15:41.180Z,101442.20
2023-01-12T09:18:14.341Z,101437.40
2023-01-12T09:20:46.555Z,101437.58
2023-01-12T09:23:18.780Z,101437.60
2023-01-12T09:25:51.164Z,101435.88
2023-01-12T09:28:23.445Z,101436.88
2023-01-12T09:30:55.658Z,101432.88
2023-01-12T09:33:27.831Z,101433.79
2023-01-12T09:36:06.996Z,101436.48
2023-01-12T09:38:39.998Z,101435.48
2023-01-12T09:41:18.448Z,101429.52
2023-01-12T09:44:08.166Z,101426.48
2023-01-12T09:47:00.736Z,101423.41
2023-01-12T09:49:37.150Z,101417.85
2023-01-12T09:52:17.382Z,101417.27
2023-01-12T09:54:52.828Z,101417.38
2023-01-12T09:58:05.845Z,101422.45
2023-01-12T10:00:38.249Z,101431.04
2023-01-12T10:03:26.027Z,101429.73
2023-01-12T10:06:00.689Z,101427.98
2023-01-12T10:08:37.901Z,101422.73
2023-01-12T10:11:17.544Z,101413.16
2023-01-12T10:14:07.690Z,101407.83
2023-01-12T10:16:49.199Z,101406.39
2023-01-12T10:19:29.732Z,101402.59
2023-01-12T10:22:11.114Z,101396.92
2023-01-12T10:24:45.071Z,101393.77
2023-01-12T10:27:18.222Z,101403.41
2023-01-12T10:29:53.391Z,101395.66
2023-01-12T10:32:37.818Z,101392.99
2023-01-12T10:35:19.514Z,101381.64
2023-01-12T10:37:54.535Z,101376.65
2023-01-12T10:40:30.863Z,101375.61
2023-01-12T10:43:21.973Z,101368.41
2023-01-12T10:46:14.679Z,101367.42
2023-01-12T10:48:48.483Z,101359.50
2023-01-12T10:51:29.964Z,101353.34
2023-01-12T10:54:10.208Z,101359.72
2023-01-12T10:56:45.547Z,101360.19
2023-01-12T10:59:22.269Z,101356.86
2023-01-12T11:02:13.252Z,101353.89
2023-01-12T11:04:47.522Z,101357.19
2023-01-12T11:07:25.858Z,101357.67
2023-01-12T11:10:19.342Z,101354.70
2023-01-12T11:12:56.947Z,101354.64
2023-01-12T11:15:29.960Z,101353.80
2023-01-12T11:18:23.608Z,101349.44
2023-01-12T11:21:03.202Z,101345.09
2023-01-12T11:23:43.762Z,101345.54
2023-01-12T11:26:22.717Z,101348.21
2023-01-12T11:29:00.522Z,101347.96
2023-01-12T11:31:38.973Z,101346.36
2023-01-12T11:34:18.128Z,101344.19
2023-01-12T11:36:55.070Z,101346.41
2023-01-12T11:39:29.505Z,101348.74
2023-01-12T11:42:23.079Z,101346.32
2023-01-12T11:45:01.578Z,101350.94
2023-01-12T11:47:38.289Z,101351.80
2023-01-12T11:50:18.391Z,101353.88
2023-01-12T11:52:51.445Z,101350.48
2023-01-12T11:55:36.019Z,101347.73
2023-01-12T11:58:21.205Z,101344.69
2023-01-12T12:01:06.715Z,101345.15
2023-01-12T12:03:51.591Z,101343.64
2023-01-12T12:06:43.133Z,101341.97
2023-01-12T12:09:35.522Z,101337.71
2023-01-12T12:12:15.957Z,101336.05
2023-01-12T12:15:10.743Z,101335.77
2023-01-12T12:17:54.930Z,101342.00
2023-01-12T12:20:34.660Z,101340.73
2023-01-12T12:23:24.398Z,101331.30
2023-01-12T12:26:05.393Z,101334.27
2023-01-12T12:29:10.560Z,101338.73
2023-01-12T12:32:05.737Z,101337.30
2023-01-12T12:35:00.275Z,101330.63
2023-01-12T12:37:45.657Z,101323.83
2023-01-12T12:40:31.726Z,101319.90
2023-01-12T12:43:35.983Z,101317.66
2023-01-12T12:46:14.545Z,101320.19
2023-01-12T12:48:58.512Z,101320.84
2023-01-12T12:51:33.072Z,101319.67
2023-01-12T12:54:12.099Z,101317.66
2023-01-12T12:56:45.656Z,101312.98
2023-01-12T12:59:53.418Z,101315.92
2023-01-12T13:02:39.724Z,101319.66
2023-01-12T13:05:11.412Z,101324.48
2023-01-12T13:07:53.006Z,101327.85
2023-01-12T13:10:34.998Z,101329.27
2023-01-12T13:13:26.105Z,101332.40
2023-01-12T13:16:39.844Z,101335.30
2023-01-12T13:19:34.178Z,101330.85
2023-01-12T13:22:32.283Z,101326.82
2023-01-12T13:25:27.389Z,101324.30
2023-01-12T13:28:20.018Z,101326.60
2023-01-12T13:30:57.286Z,101329.48
2023-01-12T13:33:30.763Z,101331.00
2023-01-12T13:36:11.020Z,101333.36
2023-01-12T13:39:07.397Z,101331.44
2023-01-12T13:42:01.551Z,101325.69
2023-01-12T13:44:38.951Z,101334.58
2023-01-12T13:47:17.155Z,101332.45
2023-01-12T13:49:53.013Z,101329.69
2023-01-12T13:52:28.415Z,101329.23
2023-01-12T13:55:01.106Z,101330.34
2023-01-12T13:57:34.199Z,101331.75
2023-01-12T14:00:11.166Z,101338.95
2023-01-12T14:02:43.991Z,101346.25
2023-01-12T14:05:35.668Z,101343.29
2023-01-12T14:08:27.787Z,101348.91
2023-01-12T14:11:13.514Z,101352.36
2023-01-12T14:13:54.107Z,101354.71
2023-01-12T14:17:05.473Z,101357.45
2023-01-12T14:19:36.785Z,101365.64
2023-01-12T14:22:17.721Z,101363.52
2023-01-12T14:24:49.994Z,101364.47
2023-01-12T14:27:27.549Z,101366.32
2023-01-12T14:30:01.849Z,101367.90
2023-01-12T14:32:34.150Z,101371.26
2023-01-12T14:35:06.981Z,101376.63
2023-01-12T14:37:39.931Z,101378.76
2023-01-12T14:40:29.162Z,101380.38
2023-01-12T14:43:20.984Z,101380.58
2023-01-12T14:46:17.734Z,101378.83
2023-01-12T14:49:00.049Z,101372.23
2023-01-12T14:51:35.755Z,101367.49
2023-01-12T14:54:20.959Z,101377.52
2023-01-12T14:56:59.661Z,101376.24
2023-01-12T14:59:35.155Z,101378.23
2023-01-12T15:02:34.442Z,101378.98
2023-01-12T15:05:21.135Z,101379.73
2023-01-12T15:08:01.493Z,101380.36
2023-01-12T15:10:36.351Z,101384.02
2023-01-12T15:13:27.915Z,101384.20
2023-01-12T15:16:18.956Z,101382.38
2023-01-12T15:19:09.604Z,101379.55
2023-01-12T15:22:02.367Z,101387.40
2023-01-12T15:24:54.699Z,101385.59
2023-01-12T15:27:29.618Z,101386.20
2023-01-12T15:30:01.895Z,101385.43
2023-01-12T15:32:48.940Z,101387.95
2023-01-12T15:35:24.423Z,101395.19
2023-01-12T15:37:58.943Z,101396.21
2023-01-12T15:40:31.470Z,101401.20
2023-01-12T15:43:04.838Z,101404.20
2023-01-12T15:45:39.713Z,101399.20
2023-01-12T15:48:13.087Z,101402.14
2023-01-12T15:50:47.088Z,101401.48
2023-01-12T15:53:22.426Z,101401.20
2023-01-12T15:55:54.591Z,101404.94
2023-01-12T15:58:26.865Z,101403.20
2023-01-12T16:00:59.299Z,101400.84
2023-01-12T16:03:58.983Z,101403.86
2023-01-12T16:06:27.143Z,101393.11
2023-01-12T16:08:59.339Z,101401.39
2023-01-12T16:11:31.605Z,101406.61
2023-01-12T16:14:03.936Z,101406.24
2023-01-12T16:16:36.916Z,101405.90
2023-01-12T16:19:10.114Z,101406.45
2023-01-12T16:21:42.401Z,101406.66
2023-01-12T16:24:14.668Z,101410.67
2023-01-12T16:26:47.169Z,101409.42
2023-01-12T16:29:19.459Z,101412.30
2023-01-12T16:31:51.872Z,101414.75
2023-01-12T16:34:24.660Z,101414.41
2023-01-12T16:36:58.013Z,101419.20
2023-01-12T16:39:31.930Z,101420.85
2023-01-12T16:42:04.567Z,101423.17
2023-01-12T16:44:40.216Z,101423.14
2023-01-12T16:47:15.800Z,101425.27
2023-01-12T16:49:51.452Z,101428.02
2023-01-12T16:52:24.354Z,101434.77
2023-01-12T16:54:56.706Z,101433.11
2023-01-12T16:57:28.932Z,101437.59
2023-01-12T17:00:01.167Z,101438.09
2023-01-12T17:02:33.626Z,101436.47
2023-01-12T17:05:07.764Z,101437.89
2023-01-12T17:07:40.144Z,101441.30
2023-01-12T17:10:13.871Z,101444.16
2023-01-12T17:12:54.122Z,101449.05
2023-01-12T17:15:31.725Z,101451.56
2023-01-12T17:18:05.395Z,101451.68
2023-01-12T17:20:37.919Z,101454.33
2023-01-12T17:23:10.443Z,101451.39
2023-01-12T17:25:43.148Z,101454.63
2023-01-12T17:28:15.463Z,101459.58
2023-01-12T17:30:47.869Z,101460.70
2023-01-12T17:33:21.874Z,101464.79
2023-01-12T17:35:55.644Z,101466.45
2023-01-12T17:38:27.874Z,101464.73
2023-01-12T17:41:00.237Z,101459.54
2023-01-12T17:43:32.392Z,101460.86
2023-01-12T17:46:04.618Z,101459.14
2023-01-12T17:48:36.968Z,101457.11
2023-01-12T17:51:14.038Z,101458.77
2023-01-12T17:53:46.270Z,101464.05
2023-01-12T17:56:18.689Z,101464.55
2023-01-12T17:58:54.369Z,101468.75
2023-01-12T18:01:29.419Z,101470.48
2023-01-12T18:04:02.321Z,101473.73
2023-01-12T18:06:34.630Z,101471.77
2023-01-12T18:09:07.519Z,101477.49
2023-01-12T18:11:40.103Z,101479.50
2023-01-12T18:14:13.006Z,101480.82
2023-01-12T18:16:45.413Z,101476.95
2023-01-12T18:19:17.599Z,101477.86
2023-01-12T18:21:51.970Z,101471.80
2023-01-12T18:24:24.179Z,101467.24
2023-01-12T18:26:56.454Z,101463.19
2023-01-12T18:29:28.680Z,101461.16
2023-01-12T18:32:00.898Z,101460.66
2023-01-12T18:34:33.109Z,101463.48
2023-01-12T18:37:05.401Z,101463.88
2023-01-12T18:39:37.655Z,101461.36
2023-01-12T18:42:27.684Z,101458.73
2023-01-12T18:45:01.209Z,101457.23
2023-01-12T18:47:50.848Z,101459.05
2023-01-12T18:50:40.761Z,101461.52
2023-01-12T18:53:31.992Z,101466.11
2023-01-12T18:56:07.411Z,101467.85
2023-01-12T18:58:40.171Z,101471.18
2023-01-12T19:01:13.819Z,101472.17
2023-01-12T19:03:46.602Z,101470.95
2023-01-12T19:06:28.862Z,101471.09
2023-01-12T19:09:29.869Z,101477.11
2023-01-12T19:12:02.723Z,101480.96
2023-01-12T19:14:52.882Z,101481.85
2023-01-12T19:17:30.942Z,101482.89
2023-01-12T19:20:05.826Z,101485.31
2023-01-12T19:22:55.389Z,101484.65
2023-01-12T19:25:44.986Z,101485.09
2023-01-12T19:28:35.786Z,101481.64
2023-01-12T19:31:11.202Z,101476.79
2023-01-12T19:33:43.911Z,101480.65
2023-01-12T19:36:17.661Z,101479.77
2023-01-12T19:38:54.090Z,101484.53
2023-01-12T19:41:43.650Z,101484.24
2023-01-12T19:44:15.830Z,101482.80
2023-01-12T19:46:48.128Z,101479.52
2023-01-12T19:49:20.476Z,101481.89
2023-01-12T19:51:52.630Z,101480.80
2023-01-12T19:54:25.094Z,101484.65
2023-01-12T19:56:57.381Z,101487.41
2023-01-12T19:59:29.911Z,101489.12
2023-01-12T20:02:02.545Z,101491.66
2023-01-12T20:04:34.863Z,101491.60
2023-01-12T20:07:08.038Z,101490.80
2023-01-12T20:09:40.236Z,101493.05
2023-01-12T20:12:12.525Z,101498.06
2023-01-12T20:14:44.790Z,101498.87
2023-01-12T20:17:17.072Z,101502.10
2023-01-12T20:19:49.390Z,101505.14
2023-01-12T20:22:21.566Z,101504.06
2023-01-12T20:24:53.826Z,101505.21
2023-01-12T20:27:26.037Z,101502.50
2023-01-12T20:29:58.342Z,101504.75
2023-01-12T20:32:32.546Z,101495.44
2023-01-12T20:35:07.564Z,101494.73
2023-01-12T20:37:39.833Z,101492.85
2023-01-12T20:40:14.542Z,101496.55
2023-01-12T20:42:47.037Z,101495.26
2023-01-12T20:45:19.270Z,101497.26
2023-01-12T20:47:51.547Z,101496.05
2023-01-12T20:50:25.685Z,101499.34
2023-01-12T20:52:58.477Z,101498.42
2023-01-12T20:55:30.649Z,101499.89
2023-01-12T20:58:05.934Z,101499.42
2023-01-12T21:00:38.248Z,101500.40
2023-01-12T21:03:10.919Z,101499.97
2023-01-12T21:05:46.055Z,101496.56
2023-01-12T21:08:19.931Z,101496.34
2023-01-12T21:10:53.947Z,101501.21
2023-01-12T21:13:26.752Z,101494.09
2023-01-12T21:16:05.497Z,101497.22
2023-01-12T21:18:37.815Z,101494.04
2023-01-12T21:21:10.529Z,101494.35
2023-01-12T21:23:42.872Z,101492.41
2023-01-12T21:26:15.636Z,101491.55
2023-01-12T21:28:47.974Z,101493.92
2023-01-12T21:31:20.234Z,101495.21
2023-01-12T21:33:52.415Z,101499.15
2023-01-12T21:36:24.777Z,101497.50
2023-01-12T21:38:57.259Z,101495.80
2023-01-12T21:41:29.670Z,101496.10
2023-01-12T21:44:02.987Z,101496.12
2023-01-12T21:46:35.369Z,101495.17
2023-01-12T21:49:08.262Z,101497.02
2023-01-12T21:51:40.473Z,101494.49
2023-01-12T21:54:12.756Z,101489.70
2023-01-12T21:56:45.082Z,101487.34
2023-01-12T21:59:18.466Z,101484.14
2023-01-12T22:01:50.881Z,101478.53
2023-01-12T22:04:23.201Z,101478.41
2023-01-12T22:06:55.584Z,101478.63
2023-01-12T22:09:29.720Z,101479.66
2023-01-12T22:12:02.074Z,101482.55
2023-01-12T22:14:34.242Z,101479.89
2023-01-12T22:17:07.902Z,101478.58
2023-01-12T22:19:40.071Z,101476.14
2023-01-12T22:22:12.310Z,101469.81
2023-01-12T22:24:44.445Z,101467.58
2023-01-12T22:27:16.610Z,101463.48
2023-01-12T22:29:48.874Z,101460.48
2023-01-12T22:32:21.043Z,101460.86
2023-01-12T22:34:55.471Z,101455.77
2023-01-12T22:37:27.808Z,101449.14
2023-01-12T22:39:59.982Z,101453.54
2023-01-12T22:42:45.971Z,101453.52
2023-01-12T22:45:18.233Z,101452.39
2023-01-12T22:47:54.036Z,101447.98
2023-01-12T22:50:26.995Z,101442.32
2023-01-12T22:52:59.224Z,101440.83
2023-01-12T22:55:31.587Z,101447.92
2023-01-12T22:58:03.780Z,101446.42
2023-01-12T23:00:40.040Z,101446.27
2023-01-12T23:03:14.134Z,101444.10
2023-01-12T23:05:56.409Z,101443.10
2023-01-12T23:08:28.808Z,101440.77
2023-01-12T23:11:09.251Z,101441.41
2023-01-12T23:13:42.792Z,101444.57
2023-01-12T23:16:17.399Z,101443.39
2023-01-12T23:18:51.523Z,101446.61
2023-01-12T23:21:25.268Z,101445.80
2023-01-12T23:23:59.215Z,101448.06
2023-01-12T23:26:33.995Z,101445.66
2023-01-12T23:29:06.481Z,101443.71
2023-01-12T23:31:38.804Z,101440.41
2023-01-12T23:34:11.044Z,101439.90
2023-01-12T23:36:43.849Z,101436.63
2023-01-12T23:39:16.977Z,101440.17
2023-01-12T23:41:49.125Z,101441.60
2023-01-12T23:44:21.369Z,101434.31
2023-01-12T23:46:55.347Z,101435.36
2023-01-12T23:49:27.518Z,101442.12
2023-01-12T23:51:59.660Z,101444.56
2023-01-12T23:54:32.627Z,101447.38
2023-01-12T23:57:05.004Z,101454.58
2023-01-12T23:59:37.167Z,101455.83
